ARG1899 SAWC-SAWH
Flight info
| Callsign | ARG1899 |
|---|---|
| Flight time | 1h 9m |
| Altitude | 35000 |
| Route | DEVIS2H DEVIS UW52 GAL UW42 GRA DCT DABLI DABLI1Q |
| Aircraft | B737/M-SDFGIKLORWXY/LB1 |
Departure
| Time | 2026-05-07 00:54 |
|---|---|
| Airport | El Calafate - Commander Armando Tola International Airport (SAWC) |
Arrival
| Time | 2026-05-07 02:03 |
|---|---|
| Airport | Ushuaia - Malvinas Argentinas International Airport (SAWH) |
| Time | Latitude | Longitude | Altitude | Speed | Heading |
|---|---|---|---|---|---|
| 2026-05-07 00:35 | -50.28354 | -72.05585 | 640 ft | 0 kts | 175° |
| 2026-05-07 00:45 | -50.28349 | -72.05586 | 640 ft | 4 kts | 177° |
| 2026-05-07 00:46 | -50.28322 | -72.05583 | 641 ft | 4 kts | 197° |
| 2026-05-07 00:46 | -50.28299 | -72.05565 | 643 ft | 4 kts | 221° |
| 2026-05-07 00:46 | -50.28280 | -72.05536 | 643 ft | 4 kts | 217° |
| 2026-05-07 00:46 | -50.28267 | -72.05525 | 642 ft | 0 kts | 175° |
| 2026-05-07 00:47 | -50.28264 | -72.05537 | 641 ft | 4 kts | 261° |
| 2026-05-07 00:47 | -50.28260 | -72.05561 | 640 ft | 0 kts | 288° |
| 2026-05-07 00:49 | -50.28260 | -72.05571 | 640 ft | 2 kts | 270° |
| 2026-05-07 00:49 | -50.28264 | -72.05611 | 640 ft | 6 kts | 259° |
| 2026-05-07 00:49 | -50.28273 | -72.05691 | 640 ft | 9 kts | 260° |
| 2026-05-07 00:49 | -50.28283 | -72.05809 | 640 ft | 13 kts | 265° |
| 2026-05-07 00:50 | -50.28292 | -72.05962 | 640 ft | 16 kts | 265° |
| 2026-05-07 00:50 | -50.28302 | -72.06146 | 640 ft | 18 kts | 265° |
| 2026-05-07 00:50 | -50.28309 | -72.06330 | 640 ft | 14 kts | 285° |
| 2026-05-07 00:50 | -50.28236 | -72.06403 | 640 ft | 13 kts | 1° |
| 2026-05-07 00:51 | -50.28167 | -72.06327 | 642 ft | 13 kts | 50° |
| 2026-05-07 00:51 | -50.28113 | -72.06223 | 642 ft | 12 kts | 46° |
| 2026-05-07 00:51 | -50.28100 | -72.06221 | 641 ft | 1 kts | 330° |
| 2026-05-07 00:51 | -50.28090 | -72.06244 | 642 ft | 5 kts | 300° |
| 2026-05-07 00:52 | -50.28081 | -72.06336 | 642 ft | 13 kts | 267° |
| 2026-05-07 00:52 | -50.28091 | -72.06516 | 642 ft | 21 kts | 265° |
| 2026-05-07 00:52 | -50.28105 | -72.06762 | 642 ft | 23 kts | 264° |
| 2026-05-07 00:52 | -50.28161 | -72.06976 | 641 ft | 21 kts | 248° |
| 2026-05-07 00:53 | -50.28138 | -72.07069 | 642 ft | 7 kts | 19° |
| 2026-05-07 00:53 | -50.28121 | -72.07000 | 643 ft | 7 kts | 80° |
| 2026-05-07 00:53 | -50.28104 | -72.06722 | 642 ft | 61 kts | 85° |
| 2026-05-07 00:53 | -50.28040 | -72.05661 | 640 ft | 133 kts | 85° |
| 2026-05-07 00:54 | -50.27945 | -72.04011 | 992 ft | 157 kts | 84° |
| 2026-05-07 00:54 | -50.27853 | -72.02345 | 1951 ft | 155 kts | 88° |
| 2026-05-07 00:54 | -50.27795 | -72.00671 | 2759 ft | 160 kts | 87° |
| 2026-05-07 00:54 | -50.27679 | -71.98754 | 3090 ft | 194 kts | 86° |
| 2026-05-07 00:55 | -50.27541 | -71.96546 | 3329 ft | 220 kts | 86° |
| 2026-05-07 00:55 | -50.27385 | -71.94049 | 3598 ft | 244 kts | 86° |
| 2026-05-07 00:55 | -50.27206 | -71.91306 | 4114 ft | 260 kts | 86° |
| 2026-05-07 00:55 | -50.27090 | -71.88450 | 4939 ft | 266 kts | 98° |
| 2026-05-07 00:56 | -50.27790 | -71.85845 | 5821 ft | 262 kts | 131° |
| 2026-05-07 00:56 | -50.28999 | -71.83698 | 6707 ft | 265 kts | 135° |
| 2026-05-07 00:56 | -50.30255 | -71.81546 | 7517 ft | 270 kts | 135° |
| 2026-05-07 00:56 | -50.31530 | -71.79350 | 8346 ft | 275 kts | 134° |
| 2026-05-07 00:57 | -50.32803 | -71.77135 | 9156 ft | 280 kts | 134° |
| 2026-05-07 00:57 | -50.34107 | -71.74842 | 9999 ft | 284 kts | 133° |
| 2026-05-07 00:57 | -50.35438 | -71.72480 | 10543 ft | 299 kts | 133° |
| 2026-05-07 00:57 | -50.36865 | -71.69927 | 10774 ft | 322 kts | 132° |
| 2026-05-07 00:58 | -50.38363 | -71.67224 | 11343 ft | 333 kts | 131° |
| 2026-05-07 00:58 | -50.39887 | -71.64460 | 12141 ft | 337 kts | 130° |
| 2026-05-07 00:58 | -50.41422 | -71.61665 | 12983 ft | 340 kts | 130° |
| 2026-05-07 00:58 | -50.42973 | -71.58835 | 13823 ft | 345 kts | 129° |
| 2026-05-07 00:59 | -50.43758 | -71.57401 | 14196 ft | 347 kts | 129° |
| 2026-05-07 00:59 | -50.44764 | -71.55560 | 14639 ft | 352 kts | 129° |
| 2026-05-07 00:59 | -50.46374 | -71.52612 | 15333 ft | 359 kts | 129° |
| 2026-05-07 01:00 | -50.48010 | -71.49611 | 16059 ft | 365 kts | 129° |
| 2026-05-07 01:00 | -50.49674 | -71.46554 | 16764 ft | 372 kts | 129° |
| 2026-05-07 01:00 | -50.51368 | -71.43442 | 17474 ft | 378 kts | 129° |
| 2026-05-07 01:00 | -50.53090 | -71.40273 | 18176 ft | 385 kts | 129° |
| 2026-05-07 01:01 | -50.54840 | -71.37047 | 18810 ft | 391 kts | 129° |
| 2026-05-07 01:01 | -50.56614 | -71.33775 | 19448 ft | 395 kts | 129° |
| 2026-05-07 01:01 | -50.58378 | -71.30516 | 20091 ft | 399 kts | 129° |
| 2026-05-07 01:01 | -50.60187 | -71.27170 | 20743 ft | 403 kts | 129° |
| 2026-05-07 01:02 | -50.62016 | -71.23784 | 21366 ft | 408 kts | 129° |
| 2026-05-07 01:02 | -50.63863 | -71.20358 | 21989 ft | 413 kts | 129° |
| 2026-05-07 01:02 | -50.65731 | -71.16889 | 22598 ft | 417 kts | 129° |
| 2026-05-07 01:02 | -50.67615 | -71.13385 | 23200 ft | 422 kts | 129° |
| 2026-05-07 01:03 | -50.69522 | -71.09835 | 23759 ft | 426 kts | 129° |
| 2026-05-07 01:03 | -50.71441 | -71.06256 | 24258 ft | 429 kts | 129° |
| 2026-05-07 01:03 | -50.73373 | -71.02648 | 24803 ft | 431 kts | 129° |
| 2026-05-07 01:03 | -50.75285 | -70.99074 | 25348 ft | 432 kts | 129° |
| 2026-05-07 01:04 | -50.77229 | -70.95434 | 25850 ft | 435 kts | 129° |
| 2026-05-07 01:04 | -50.79188 | -70.91762 | 26248 ft | 439 kts | 128° |
| 2026-05-07 01:04 | -50.81169 | -70.88041 | 26619 ft | 445 kts | 128° |
| 2026-05-07 01:04 | -50.83167 | -70.84282 | 27086 ft | 448 kts | 128° |
| 2026-05-07 01:05 | -50.85174 | -70.80502 | 27579 ft | 450 kts | 129° |
| 2026-05-07 01:05 | -50.87188 | -70.76703 | 28040 ft | 452 kts | 129° |
| 2026-05-07 01:05 | -50.89216 | -70.72874 | 28461 ft | 455 kts | 129° |
| 2026-05-07 01:05 | -50.91228 | -70.69068 | 28877 ft | 458 kts | 128° |
| 2026-05-07 01:06 | -50.93279 | -70.65181 | 29266 ft | 461 kts | 128° |
| 2026-05-07 01:06 | -50.95342 | -70.61267 | 29676 ft | 464 kts | 128° |
| 2026-05-07 01:06 | -50.97415 | -70.57327 | 30064 ft | 466 kts | 128° |
| 2026-05-07 01:06 | -50.99499 | -70.53361 | 30386 ft | 469 kts | 129° |
| 2026-05-07 01:07 | -51.01591 | -70.49373 | 30730 ft | 470 kts | 129° |
| 2026-05-07 01:07 | -51.03679 | -70.45388 | 31169 ft | 468 kts | 129° |
| 2026-05-07 01:07 | -51.05756 | -70.41416 | 31655 ft | 466 kts | 129° |
| 2026-05-07 01:07 | -51.07797 | -70.37509 | 32089 ft | 465 kts | 130° |
| 2026-05-07 01:08 | -51.09862 | -70.33550 | 32488 ft | 465 kts | 130° |
| 2026-05-07 01:08 | -51.11924 | -70.29588 | 32847 ft | 465 kts | 130° |
| 2026-05-07 01:08 | -51.13988 | -70.25618 | 33228 ft | 465 kts | 130° |
| 2026-05-07 01:08 | -51.16047 | -70.21649 | 33655 ft | 464 kts | 130° |
| 2026-05-07 01:09 | -51.18096 | -70.17695 | 34081 ft | 462 kts | 131° |
| 2026-05-07 01:09 | -51.20141 | -70.13741 | 34404 ft | 462 kts | 131° |
| 2026-05-07 01:09 | -51.22181 | -70.09792 | 34681 ft | 462 kts | 131° |
| 2026-05-07 01:09 | -51.24206 | -70.05867 | 34866 ft | 465 kts | 131° |
| 2026-05-07 01:10 | -51.26261 | -70.01875 | 35063 ft | 467 kts | 131° |
| 2026-05-07 01:10 | -51.30391 | -69.93835 | 35060 ft | 467 kts | 131° |
| 2026-05-07 01:11 | -51.34473 | -69.85858 | 35044 ft | 461 kts | 131° |
| 2026-05-07 01:11 | -51.38532 | -69.77907 | 35058 ft | 461 kts | 130° |
| 2026-05-07 01:12 | -51.42560 | -69.69990 | 35049 ft | 462 kts | 130° |
| 2026-05-07 01:12 | -51.46616 | -69.61990 | 35061 ft | 462 kts | 130° |
| 2026-05-07 01:13 | -51.50669 | -69.53971 | 35050 ft | 463 kts | 130° |
| 2026-05-07 01:13 | -51.54691 | -69.45980 | 35039 ft | 463 kts | 130° |
| 2026-05-07 01:14 | -51.58753 | -69.37942 | 35037 ft | 463 kts | 133° |
| 2026-05-07 01:14 | -51.63664 | -69.31395 | 35058 ft | 458 kts | 152° |
| 2026-05-07 01:15 | -51.69411 | -69.27098 | 35054 ft | 455 kts | 160° |
| 2026-05-07 01:15 | -51.75252 | -69.23175 | 35042 ft | 455 kts | 160° |
| 2026-05-07 01:16 | -51.81043 | -69.19215 | 35045 ft | 455 kts | 159° |
| 2026-05-07 01:16 | -51.86856 | -69.15158 | 35040 ft | 455 kts | 159° |
| 2026-05-07 01:17 | -51.92660 | -69.11071 | 35041 ft | 455 kts | 159° |
| 2026-05-07 01:17 | -51.98462 | -69.06970 | 35038 ft | 455 kts | 159° |
| 2026-05-07 01:18 | -52.04224 | -69.02889 | 35041 ft | 455 kts | 159° |
| 2026-05-07 01:18 | -52.10022 | -68.98772 | 35040 ft | 455 kts | 159° |
| 2026-05-07 01:19 | -52.15818 | -68.94646 | 35045 ft | 455 kts | 159° |
| 2026-05-07 01:19 | -52.21610 | -68.90510 | 35038 ft | 455 kts | 159° |
| 2026-05-07 01:20 | -52.27401 | -68.86363 | 35040 ft | 454 kts | 159° |
| 2026-05-07 01:20 | -52.33146 | -68.82237 | 35048 ft | 454 kts | 158° |
| 2026-05-07 01:21 | -52.38927 | -68.78073 | 35044 ft | 454 kts | 158° |
| 2026-05-07 01:21 | -52.44708 | -68.73897 | 35044 ft | 454 kts | 158° |
| 2026-05-07 01:22 | -52.50485 | -68.69711 | 35046 ft | 454 kts | 158° |
| 2026-05-07 01:22 | -52.56220 | -68.65543 | 35057 ft | 454 kts | 158° |
| 2026-05-07 01:23 | -52.61994 | -68.61334 | 35049 ft | 454 kts | 158° |
| 2026-05-07 01:23 | -52.67774 | -68.57106 | 35050 ft | 455 kts | 158° |
| 2026-05-07 01:24 | -52.68171 | -68.56815 | 35050 ft | 455 kts | 158° |
| 2026-05-07 01:24 | -52.68309 | -68.56714 | 35052 ft | 455 kts | 158° |
| 2026-05-07 01:25 | -52.73368 | -68.52998 | 35055 ft | 455 kts | 158° |
| 2026-05-07 01:25 | -52.79153 | -68.48744 | 35064 ft | 455 kts | 158° |
| 2026-05-07 01:26 | -52.84952 | -68.44483 | 35058 ft | 456 kts | 158° |
| 2026-05-07 01:26 | -52.90713 | -68.40249 | 35058 ft | 456 kts | 158° |
| 2026-05-07 01:27 | -52.96514 | -68.35963 | 35063 ft | 457 kts | 158° |
| 2026-05-07 01:27 | -53.02315 | -68.31657 | 35073 ft | 457 kts | 158° |
| 2026-05-07 01:28 | -53.08120 | -68.27333 | 35068 ft | 457 kts | 158° |
| 2026-05-07 01:28 | -53.13925 | -68.22996 | 35068 ft | 457 kts | 158° |
| 2026-05-07 01:29 | -53.19689 | -68.18678 | 35070 ft | 457 kts | 158° |
| 2026-05-07 01:29 | -53.25512 | -68.14303 | 34536 ft | 461 kts | 158° |
| 2026-05-07 01:29 | -53.28416 | -68.12115 | 34142 ft | 455 kts | 158° |
| 2026-05-07 01:30 | -53.31294 | -68.09942 | 33646 ft | 452 kts | 158° |
| 2026-05-07 01:30 | -53.34144 | -68.07788 | 33178 ft | 448 kts | 157° |
| 2026-05-07 01:30 | -53.36968 | -68.05650 | 32740 ft | 443 kts | 157° |
| 2026-05-07 01:30 | -53.39768 | -68.03528 | 32310 ft | 439 kts | 157° |
| 2026-05-07 01:31 | -53.42504 | -68.01452 | 31889 ft | 436 kts | 157° |
| 2026-05-07 01:31 | -53.45252 | -67.99364 | 31480 ft | 432 kts | 157° |
| 2026-05-07 01:31 | -53.47981 | -67.97288 | 31075 ft | 429 kts | 157° |
| 2026-05-07 01:31 | -53.50687 | -67.95226 | 30676 ft | 426 kts | 157° |
| 2026-05-07 01:32 | -53.53375 | -67.93174 | 30284 ft | 423 kts | 157° |
| 2026-05-07 01:32 | -53.56044 | -67.91133 | 29833 ft | 420 kts | 157° |
| 2026-05-07 01:32 | -53.58690 | -67.89107 | 29399 ft | 416 kts | 157° |
| 2026-05-07 01:32 | -53.61309 | -67.87098 | 28985 ft | 411 kts | 157° |
| 2026-05-07 01:33 | -53.63898 | -67.85109 | 28584 ft | 407 kts | 157° |
| 2026-05-07 01:33 | -53.66463 | -67.83133 | 28183 ft | 403 kts | 157° |
| 2026-05-07 01:33 | -53.68968 | -67.81204 | 27779 ft | 400 kts | 157° |
| 2026-05-07 01:33 | -53.71487 | -67.79263 | 27387 ft | 396 kts | 157° |
| 2026-05-07 01:34 | -53.73984 | -67.77340 | 26988 ft | 393 kts | 157° |
| 2026-05-07 01:34 | -53.76554 | -67.75902 | 26578 ft | 387 kts | 173° |
| 2026-05-07 01:34 | -53.79209 | -67.75684 | 26217 ft | 379 kts | 188° |
| 2026-05-07 01:34 | -53.81766 | -67.76492 | 25828 ft | 372 kts | 199° |
| 2026-05-07 01:35 | -53.84241 | -67.77691 | 25451 ft | 369 kts | 201° |
| 2026-05-07 01:35 | -53.86687 | -67.78954 | 25066 ft | 366 kts | 201° |
| 2026-05-07 01:35 | -53.89084 | -67.80204 | 24694 ft | 364 kts | 201° |
| 2026-05-07 01:35 | -53.91504 | -67.81456 | 24318 ft | 363 kts | 201° |
| 2026-05-07 01:36 | -53.93917 | -67.82690 | 23940 ft | 362 kts | 201° |
| 2026-05-07 01:36 | -53.96323 | -67.83909 | 23541 ft | 360 kts | 201° |
| 2026-05-07 01:36 | -53.98720 | -67.85116 | 23104 ft | 358 kts | 200° |
| 2026-05-07 01:36 | -54.01105 | -67.86311 | 22711 ft | 356 kts | 200° |
| 2026-05-07 01:37 | -54.03472 | -67.87496 | 22356 ft | 353 kts | 200° |
| 2026-05-07 01:37 | -54.05820 | -67.88672 | 21961 ft | 351 kts | 200° |
| 2026-05-07 01:37 | -54.08155 | -67.89841 | 21589 ft | 349 kts | 200° |
| 2026-05-07 01:37 | -54.10443 | -67.90987 | 21217 ft | 346 kts | 200° |
| 2026-05-07 01:38 | -54.12747 | -67.92143 | 20864 ft | 344 kts | 200° |
| 2026-05-07 01:38 | -54.15032 | -67.93291 | 20501 ft | 342 kts | 200° |
| 2026-05-07 01:38 | -54.17308 | -67.94435 | 20142 ft | 340 kts | 199° |
| 2026-05-07 01:38 | -54.19566 | -67.95572 | 19785 ft | 338 kts | 199° |
| 2026-05-07 01:39 | -54.21813 | -67.96704 | 19419 ft | 336 kts | 199° |
| 2026-05-07 01:39 | -54.24051 | -67.97833 | 19055 ft | 334 kts | 199° |
| 2026-05-07 01:39 | -54.26278 | -67.98958 | 18715 ft | 333 kts | 199° |
| 2026-05-07 01:39 | -54.28490 | -68.00077 | 18359 ft | 331 kts | 199° |
| 2026-05-07 01:40 | -54.30663 | -68.01176 | 17959 ft | 329 kts | 199° |
| 2026-05-07 01:40 | -54.32850 | -68.02284 | 17613 ft | 326 kts | 199° |
| 2026-05-07 01:40 | -54.35013 | -68.03381 | 17254 ft | 323 kts | 199° |
| 2026-05-07 01:40 | -54.37160 | -68.04472 | 16909 ft | 320 kts | 199° |
| 2026-05-07 01:41 | -54.39290 | -68.05554 | 16554 ft | 318 kts | 198° |
| 2026-05-07 01:41 | -54.41399 | -68.06627 | 16223 ft | 315 kts | 198° |
| 2026-05-07 01:41 | -54.43497 | -68.07697 | 15880 ft | 313 kts | 198° |
| 2026-05-07 01:41 | -54.45580 | -68.08759 | 15532 ft | 311 kts | 198° |
| 2026-05-07 01:42 | -54.47651 | -68.09817 | 15182 ft | 310 kts | 198° |
| 2026-05-07 01:42 | -54.49712 | -68.10868 | 14850 ft | 308 kts | 197° |
| 2026-05-07 01:42 | -54.51733 | -68.11902 | 14503 ft | 307 kts | 197° |
| 2026-05-07 01:42 | -54.53774 | -68.12949 | 14185 ft | 306 kts | 197° |
| 2026-05-07 01:43 | -54.55796 | -68.13986 | 14123 ft | 300 kts | 197° |
| 2026-05-07 01:43 | -54.57777 | -68.15002 | 14045 ft | 295 kts | 197° |
| 2026-05-07 01:43 | -54.59765 | -68.16020 | 13630 ft | 298 kts | 197° |
| 2026-05-07 01:43 | -54.61770 | -68.17049 | 13035 ft | 304 kts | 197° |
| 2026-05-07 01:44 | -54.63812 | -68.18100 | 12491 ft | 308 kts | 197° |
| 2026-05-07 01:44 | -54.65835 | -68.19141 | 12096 ft | 307 kts | 197° |
| 2026-05-07 01:44 | -54.67873 | -68.20190 | 11723 ft | 305 kts | 197° |
| 2026-05-07 01:44 | -54.69899 | -68.21234 | 11339 ft | 303 kts | 197° |
| 2026-05-07 01:45 | -54.71915 | -68.22273 | 10975 ft | 301 kts | 197° |
| 2026-05-07 01:45 | -54.73918 | -68.23307 | 10610 ft | 300 kts | 197° |
| 2026-05-07 01:45 | -54.75912 | -68.24340 | 10221 ft | 299 kts | 197° |
| 2026-05-07 01:45 | -54.77906 | -68.25375 | 9828 ft | 299 kts | 197° |
| 2026-05-07 01:46 | -54.79888 | -68.26404 | 9466 ft | 296 kts | 196° |
| 2026-05-07 01:46 | -54.81919 | -68.26733 | 9052 ft | 295 kts | 170° |
| 2026-05-07 01:46 | -54.83735 | -68.25447 | 8919 ft | 280 kts | 144° |
| 2026-05-07 01:46 | -54.85075 | -68.23165 | 8803 ft | 264 kts | 124° |
| 2026-05-07 01:47 | -54.85907 | -68.20432 | 8702 ft | 249 kts | 115° |
| 2026-05-07 01:47 | -54.86601 | -68.17726 | 8415 ft | 243 kts | 114° |
| 2026-05-07 01:47 | -54.87280 | -68.15015 | 7989 ft | 245 kts | 114° |
| 2026-05-07 01:47 | -54.87958 | -68.12307 | 7634 ft | 243 kts | 114° |
| 2026-05-07 01:48 | -54.88632 | -68.09623 | 7282 ft | 242 kts | 115° |
| 2026-05-07 01:48 | -54.89303 | -68.06957 | 6932 ft | 240 kts | 115° |
| 2026-05-07 01:48 | -54.89963 | -68.04346 | 6595 ft | 238 kts | 115° |
| 2026-05-07 01:48 | -54.90628 | -68.01722 | 6248 ft | 236 kts | 115° |
| 2026-05-07 01:49 | -54.91280 | -67.99148 | 5842 ft | 231 kts | 115° |
| 2026-05-07 01:49 | -54.91925 | -67.96606 | 5304 ft | 229 kts | 116° |
| 2026-05-07 01:49 | -54.92551 | -67.94135 | 5054 ft | 214 kts | 116° |
| 2026-05-07 01:49 | -54.92995 | -67.91784 | 4872 ft | 200 kts | 96° |
| 2026-05-07 01:50 | -54.92699 | -67.89533 | 4727 ft | 188 kts | 63° |
| 2026-05-07 01:50 | -54.91827 | -67.87903 | 4409 ft | 186 kts | 33° |
| 2026-05-07 01:50 | -54.90616 | -67.87215 | 4058 ft | 184 kts | 2° |
| 2026-05-07 01:50 | -54.89378 | -67.87659 | 4013 ft | 187 kts | 332° |
| 2026-05-07 01:51 | -54.88408 | -67.89116 | 3984 ft | 184 kts | 304° |
| 2026-05-07 01:51 | -54.87932 | -67.91119 | 3978 ft | 178 kts | 280° |
| 2026-05-07 01:51 | -54.87696 | -67.93236 | 3989 ft | 180 kts | 280° |
| 2026-05-07 01:51 | -54.87454 | -67.95370 | 3981 ft | 180 kts | 280° |
| 2026-05-07 01:52 | -54.87215 | -67.97498 | 3970 ft | 179 kts | 280° |
| 2026-05-07 01:52 | -54.86978 | -67.99618 | 3973 ft | 178 kts | 279° |
| 2026-05-07 01:52 | -54.86745 | -68.01729 | 3974 ft | 178 kts | 279° |
| 2026-05-07 01:52 | -54.86512 | -68.03835 | 3978 ft | 178 kts | 279° |
| 2026-05-07 01:53 | -54.86283 | -68.05909 | 3976 ft | 177 kts | 279° |
| 2026-05-07 01:53 | -54.86052 | -68.07973 | 3685 ft | 173 kts | 280° |
| 2026-05-07 01:53 | -54.85824 | -68.10046 | 3194 ft | 175 kts | 280° |
| 2026-05-07 01:53 | -54.85598 | -68.12108 | 2724 ft | 173 kts | 281° |
| 2026-05-07 01:54 | -54.85371 | -68.14166 | 2170 ft | 173 kts | 281° |
| 2026-05-07 01:54 | -54.85147 | -68.16187 | 1711 ft | 169 kts | 281° |
| 2026-05-07 01:54 | -54.84925 | -68.18179 | 1279 ft | 168 kts | 281° |
| 2026-05-07 01:54 | -54.84700 | -68.20183 | 816 ft | 169 kts | 280° |
| 2026-05-07 01:55 | -54.84480 | -68.22143 | 734 ft | 158 kts | 281° |
| 2026-05-07 01:55 | -54.84277 | -68.23902 | 705 ft | 137 kts | 283° |
| 2026-05-07 01:55 | -54.84177 | -68.25476 | 625 ft | 133 kts | 269° |
| 2026-05-07 01:55 | -54.84207 | -68.26990 | 450 ft | 118 kts | 269° |
| 2026-05-07 01:56 | -54.84269 | -68.28466 | 516 ft | 129 kts | 267° |
| 2026-05-07 01:56 | -54.84322 | -68.30062 | 889 ft | 137 kts | 269° |
| 2026-05-07 01:56 | -54.84347 | -68.31788 | 1118 ft | 140 kts | 271° |
| 2026-05-07 01:56 | -54.84355 | -68.33443 | 1116 ft | 136 kts | 265° |
| 2026-05-07 01:57 | -54.84735 | -68.34884 | 1058 ft | 131 kts | 228° |
| 2026-05-07 01:57 | -54.85510 | -68.35653 | 1113 ft | 133 kts | 191° |
| 2026-05-07 01:57 | -54.86388 | -68.35232 | 1037 ft | 134 kts | 143° |
| 2026-05-07 01:57 | -54.86914 | -68.33987 | 1050 ft | 129 kts | 117° |
| 2026-05-07 01:58 | -54.87191 | -68.32494 | 1235 ft | 133 kts | 107° |
| 2026-05-07 01:58 | -54.87386 | -68.30913 | 1362 ft | 132 kts | 102° |
| 2026-05-07 01:58 | -54.87502 | -68.29352 | 1411 ft | 131 kts | 100° |
| 2026-05-07 01:58 | -54.87587 | -68.27812 | 1600 ft | 125 kts | 96° |
| 2026-05-07 01:59 | -54.87645 | -68.26266 | 1543 ft | 128 kts | 95° |
| 2026-05-07 01:59 | -54.87677 | -68.24671 | 1505 ft | 138 kts | 95° |
| 2026-05-07 01:59 | -54.87690 | -68.22984 | 1329 ft | 141 kts | 92° |
| 2026-05-07 01:59 | -54.87699 | -68.21342 | 1158 ft | 132 kts | 94° |
| 2026-05-07 02:00 | -54.87693 | -68.19790 | 982 ft | 124 kts | 88° |
| 2026-05-07 02:00 | -54.87624 | -68.18229 | 934 ft | 133 kts | 79° |
| 2026-05-07 02:00 | -54.87067 | -68.16935 | 823 ft | 140 kts | 34° |
| 2026-05-07 02:00 | -54.86182 | -68.16482 | 943 ft | 131 kts | 359° |
| 2026-05-07 02:01 | -54.85314 | -68.17013 | 836 ft | 138 kts | 325° |
| 2026-05-07 02:01 | -54.84726 | -68.18247 | 828 ft | 130 kts | 299° |
| 2026-05-07 02:01 | -54.84393 | -68.19733 | 869 ft | 137 kts | 287° |
| 2026-05-07 02:01 | -54.84194 | -68.21328 | 832 ft | 137 kts | 278° |
| 2026-05-07 02:02 | -54.84128 | -68.22970 | 643 ft | 137 kts | 272° |
| 2026-05-07 02:02 | -54.84143 | -68.24585 | 447 ft | 130 kts | 268° |
| 2026-05-07 02:02 | -54.84205 | -68.26133 | 284 ft | 128 kts | 267° |
| 2026-05-07 02:02 | -54.84260 | -68.27664 | 127 ft | 125 kts | 268° |
| 2026-05-07 02:03 | -54.84311 | -68.29021 | 87 ft | 94 kts | 266° |
| 2026-05-07 02:03 | -54.84337 | -68.29773 | 86 ft | 34 kts | 266° |
| 2026-05-07 02:03 | -54.84351 | -68.30166 | 82 ft | 32 kts | 266° |
| 2026-05-07 02:03 | -54.84366 | -68.30527 | 80 ft | 29 kts | 266° |
| 2026-05-07 02:04 | -54.84378 | -68.30850 | 116 ft | 17 kts | 266° |
| 2026-05-07 02:04 | -54.84319 | -68.30959 | 86 ft | 13 kts | 352° |
| 2026-05-07 02:04 | -54.84231 | -68.30970 | 82 ft | 13 kts | 356° |
| 2026-05-07 02:04 | -54.84145 | -68.30984 | 83 ft | 12 kts | 354° |
| 2026-05-07 02:05 | -54.84100 | -68.31001 | 85 ft | 3 kts | 310° |
| 2026-05-07 02:05 | -54.84086 | -68.31030 | 83 ft | 3 kts | 330° |
| 2026-05-07 02:05 | -54.84055 | -68.31041 | 84 ft | 6 kts | 1° |
| 2026-05-07 02:05 | -54.84043 | -68.31016 | 85 ft | 4 kts | 69° |
| 2026-05-07 02:06 | -54.84023 | -68.30997 | 85 ft | 0 kts | 7° |
| 2026-05-07 02:06 | -54.84020 | -68.31006 | 82 ft | 1 kts | 301° |
| 2026-05-07 02:06 | -54.84025 | -68.31019 | 83 ft | 2 kts | 235° |